Time;durP1;ratioP1;P1;durP2;ratioP2;P2;SDS_P1;SDS_P2;PMS_P1;PMS_P2;Temp;Humidity;BMP_temperature;BMP_pressure;BME280_temperature;BME280_humidity;BME280_pressure;Samples;Min_cycle;Max_cycle;Signal;HPM_P1;HPM_P2
2021/12/15 00:00:52;;;;;;;;;13.00;13.00;;;;;;;;5187939;28;8796;-61
2021/12/15 00:03:25;;;;;;;;;11.75;11.75;;;;;;;;5204947;28;8805;-61
2021/12/15 00:05:56;;;;;;;;;4.40;4.20;;;;;;;;5205599;28;8809;-61
2021/12/15 00:08:27;;;;;;;;;10.00;10.00;;;;;;;;5187679;28;8782;-61
2021/12/15 00:10:59;;;;;;;;;17.00;15.20;;;;;;;;5204685;28;8774;-61
2021/12/15 00:13:31;;;;;;;;;17.80;17.20;;;;;;;;5187029;28;8805;-61
2021/12/15 00:16:04;;;;;;;;;12.00;12.00;;;;;;;;5187456;28;8987;-61
2021/12/15 00:18:35;;;;;;;;;11.20;10.60;;;;;;;;5205057;28;8867;-61
2021/12/15 00:21:08;;;;;;;;;8.00;7.40;;;;;;;;5171001;28;8833;-61
2021/12/15 00:23:39;;;;;;;;;19.00;19.00;;;;;;;;5204620;28;8806;-61
2021/12/15 00:26:12;;;;;;;;;22.20;21.00;;;;;;;;5187696;28;8801;-61
2021/12/15 00:28:44;;;;;;;;;28.20;24.40;;;;;;;;5204703;28;8818;-62
2021/12/15 00:31:16;;;;;;;;;32.60;32.00;;;;;;;;5187065;28;8805;-62
2021/12/15 00:33:47;;;;;;;;;11.00;10.00;;;;;;;;5171142;28;8829;-61
2021/12/15 00:36:21;;;;;;;;;32.60;29.40;;;;;;;;5187230;28;8829;-62
2021/12/15 00:38:52;;;;;;;;;38.60;36.80;;;;;;;;5187179;28;8805;-61
2021/12/15 00:41:24;;;;;;;;;22.80;21.40;;;;;;;;5204899;28;8914;-62
2021/12/15 00:43:55;;;;;;;;;16.60;16.60;;;;;;;;5187967;28;8828;-62
2021/12/15 00:46:27;;;;;;;;;20.20;18.60;;;;;;;;5204853;28;8832;-62
2021/12/15 00:48:59;;;;;;;;;17.40;16.20;;;;;;;;5186781;28;8789;-62
2021/12/15 00:51:30;;;;;;;;;11.20;11.20;;;;;;;;5187248;28;8908;-63
2021/12/15 00:54:22;;;;;;;;;10.00;10.00;;;;;;;;5207957;28;8867;-62
2021/12/15 00:56:54;;;;;;;;;10.00;8.80;;;;;;;;5190667;28;8809;-62
2021/12/15 00:59:27;;;;;;;;;8.00;7.60;;;;;;;;5207962;28;8928;-62
2021/12/15 01:01:59;;;;;;;;;8.60;8.00;;;;;;;;5190701;28;9011;-62
2021/12/15 01:04:31;;;;;;;;;10.00;10.00;;;;;;;;5208391;28;8886;-62
2021/12/15 01:07:05;;;;;;;;;14.00;13.40;;;;;;;;5208299;28;9465;-61
2021/12/15 01:09:42;;;;;;;;;10.80;10.80;;;;;;;;5208272;28;8829;-61
2021/12/15 01:12:48;;;;;;;;;19.80;17.20;;;;;;;;5190508;28;8801;-61
2021/12/15 01:20:58;;;;;;;;;14.60;14.20;;;;;;;;5207933;28;8805;-62
2021/12/15 01:23:30;;;;;;;;;13.00;13.00;;;;;;;;5207690;28;8826;-63
2021/12/15 01:26:03;;;;;;;;;10.00;10.00;;;;;;;;5174010;28;11495;-63
2021/12/15 01:28:53;;;;;;;;;14.00;12.60;;;;;;;;5207662;28;8770;-62
2021/12/15 01:31:24;;;;;;;;;11.80;9.20;;;;;;;;5207744;28;8782;-62
2021/12/15 01:33:57;;;;;;;;;12.20;12.00;;;;;;;;5189849;28;8809;-61
2021/12/15 01:36:28;;;;;;;;;4.25;4.25;;;;;;;;5189248;28;8899;-60
2021/12/15 01:38:59;;;;;;;;;11.00;11.00;;;;;;;;5207336;28;11466;-61
2021/12/15 01:41:31;;;;;;;;;12.60;12.60;;;;;;;;5173079;28;11512;-61
2021/12/15 01:46:56;;;;;;;;;13.00;13.00;;;;;;;;5207354;28;8839;-61
2021/12/15 01:49:36;;;;;;;;;10.80;10.20;;;;;;;;5207319;28;9410;-61
2021/12/15 01:52:20;;;;;;;;;11.20;11.00;;;;;;;;5206815;28;8793;-61
2021/12/15 01:55:14;;;;;;;;;9.20;8.00;;;;;;;;5207198;28;8796;-62
2021/12/15 01:57:46;;;;;;;;;11.60;11.60;;;;;;;;5207545;28;8786;-61
2021/12/15 02:00:20;;;;;;;;;14.60;14.60;;;;;;;;5189713;28;9296;-62
2021/12/15 02:02:51;;;;;;;;;13.40;13.40;;;;;;;;5207529;28;8910;-61
2021/12/15 02:05:28;;;;;;;;;11.20;11.00;;;;;;;;5172453;28;8777;-62
2021/12/15 02:08:00;;;;;;;;;9.60;8.80;;;;;;;;5206725;28;8796;-62
2021/12/15 02:10:50;;;;;;;;;9.80;9.80;;;;;;;;5178224;28;8804;-62
2021/12/15 02:13:42;;;;;;;;;11.80;11.80;;;;;;;;5178921;28;8817;-62
2021/12/15 02:16:13;;;;;;;;;9.00;8.20;;;;;;;;5188864;28;8812;-62
2021/12/15 02:18:45;;;;;;;;;11.00;10.40;;;;;;;;5189115;28;8782;-62
2021/12/15 02:21:19;;;;;;;;;5.80;5.80;;;;;;;;5189224;28;8829;-62
2021/12/15 02:23:55;;;;;;;;;12.20;11.20;;;;;;;;5206315;28;8886;-63
2021/12/15 02:26:39;;;;;;;;;7.80;7.80;;;;;;;;5206581;28;8797;-62
2021/12/15 02:29:15;;;;;;;;;5.60;5.20;;;;;;;;5188859;28;8816;-63
2021/12/15 02:37:20;;;;;;;;;15.60;15.40;;;;;;;;5189333;28;8888;-63
2021/12/15 02:40:02;;;;;;;;;10.00;8.00;;;;;;;;5172720;28;9626;-62
2021/12/15 02:42:35;;;;;;;;;15.40;14.40;;;;;;;;5172424;28;8851;-63
2021/12/15 02:45:24;;;;;;;;;15.60;15.60;;;;;;;;5206043;28;8798;-62
2021/12/15 02:47:56;;;;;;;;;11.60;11.60;;;;;;;;5172338;28;8790;-62
2021/12/15 02:50:28;;;;;;;;;8.25;8.25;;;;;;;;5188455;28;9769;-63
2021/12/15 02:52:59;;;;;;;;;16.00;16.00;;;;;;;;5188135;28;10924;-63
2021/12/15 02:55:31;;;;;;;;;17.80;17.80;;;;;;;;5188290;28;8797;-62
2021/12/15 02:58:02;;;;;;;;;11.75;10.75;;;;;;;;5188288;28;8789;-62
2021/12/15 03:00:48;;;;;;;;;13.00;12.60;;;;;;;;5171776;28;10632;-63
2021/12/15 03:06:24;;;;;;;;;14.60;14.60;;;;;;;;5188238;28;8805;-63
2021/12/15 03:09:30;;;;;;;;;10.20;10.20;;;;;;;;5188465;28;8785;-62
2021/12/15 03:17:41;;;;;;;;;18.20;16.80;;;;;;;;5204994;28;8793;-62
2021/12/15 03:20:12;;;;;;;;;7.40;7.40;;;;;;;;5205891;28;8801;-63
2021/12/15 03:22:44;;;;;;;;;10.60;10.60;;;;;;;;5172037;28;9445;-63
2021/12/15 03:25:16;;;;;;;;;5.80;5.80;;;;;;;;5187888;28;8785;-62
2021/12/15 03:36:35;;;;;;;;;15.40;15.40;;;;;;;;5187541;28;8859;-61
2021/12/15 03:39:09;;;;;;;;;13.80;13.60;;;;;;;;5188319;28;8765;-61
2021/12/15 03:41:40;;;;;;;;;11.60;11.40;;;;;;;;5170956;28;8839;-62
2021/12/15 03:44:12;;;;;;;;;8.20;8.20;;;;;;;;5187923;28;8805;-62
2021/12/15 03:47:05;;;;;;;;;7.00;7.00;;;;;;;;5205463;28;9429;-61
2021/12/15 03:49:36;;;;;;;;;10.00;10.00;;;;;;;;5187607;28;8765;-61
2021/12/15 03:52:08;;;;;;;;;15.20;14.00;;;;;;;;5187306;28;8806;-61
2021/12/15 03:54:41;;;;;;;;;10.20;10.20;;;;;;;;5187709;28;8817;-61
2021/12/15 03:57:12;;;;;;;;;13.20;11.80;;;;;;;;5188106;28;8805;-61
2021/12/15 03:59:44;;;;;;;;;11.00;10.20;;;;;;;;5187219;28;8770;-61
2021/12/15 04:02:18;;;;;;;;;17.00;15.20;;;;;;;;5171136;28;8789;-62
2021/12/15 04:04:54;;;;;;;;;10.60;10.60;;;;;;;;5187539;28;8781;-61
2021/12/15 04:07:26;;;;;;;;;15.40;15.40;;;;;;;;5187440;28;8790;-65
2021/12/15 04:09:58;;;;;;;;;14.40;14.40;;;;;;;;5205188;28;8886;-63
2021/12/15 04:12:29;;;;;;;;;12.40;12.40;;;;;;;;5188062;28;8782;-63
2021/12/15 04:15:19;;;;;;;;;13.60;13.60;;;;;;;;5205254;28;8914;-63
2021/12/15 04:17:59;;;;;;;;;14.20;14.00;;;;;;;;5187913;28;8789;-63
2021/12/15 04:20:33;;;;;;;;;15.00;14.40;;;;;;;;5205207;28;8895;-63
2021/12/15 04:23:05;;;;;;;;;5.00;5.00;;;;;;;;5188038;28;8816;-64
2021/12/15 04:25:56;;;;;;;;;19.00;19.00;;;;;;;;5205232;28;8789;-62
2021/12/15 04:28:31;;;;;;;;;17.40;17.40;;;;;;;;5188951;28;9496;-62
2021/12/15 04:31:05;;;;;;;;;9.80;9.80;;;;;;;;5191447;28;8774;-62
2021/12/15 04:34:00;;;;;;;;;21.80;21.20;;;;;;;;5209268;28;8844;-62
2021/12/15 04:40:55;;;;;;;;;33.80;26.20;;;;;;;;5208301;28;8718;-65
2021/12/15 04:47:51;;;;;;;;;26.00;24.40;;;;;;;;5208217;28;8718;-63
2021/12/15 04:50:41;;;;;;;;;30.00;28.40;;;;;;;;5208240;28;8828;-63
2021/12/15 04:53:31;;;;;;;;;29.80;29.60;;;;;;;;5190688;28;8867;-63
2021/12/15 04:56:20;;;;;;;;;34.00;32.80;;;;;;;;5208761;28;8793;-63
2021/12/15 04:58:54;;;;;;;;;32.00;28.40;;;;;;;;5190535;28;8785;-63
2021/12/15 05:01:26;;;;;;;;;59.60;44.00;;;;;;;;5190779;28;8798;-63
2021/12/15 05:03:57;;;;;;;;;46.60;43.00;;;;;;;;5174041;28;8825;-63
2021/12/15 05:10:54;;;;;;;;;24.80;23.40;;;;;;;;5207790;28;12307;-64
2021/12/15 05:13:27;;;;;;;;;30.00;29.40;;;;;;;;5189870;28;8959;-64
2021/12/15 05:15:59;;;;;;;;;36.20;29.40;;;;;;;;5173779;28;8809;-64
2021/12/15 05:18:31;;;;;;;;;25.60;25.20;;;;;;;;5174227;28;8825;-64
2021/12/15 05:21:02;;;;;;;;;32.25;31.75;;;;;;;;5207697;28;8805;-64
2021/12/15 05:23:33;;;;;;;;;28.60;28.60;;;;;;;;5189702;28;10468;-64
2021/12/15 05:26:04;;;;;;;;;33.50;32.50;;;;;;;;5190572;28;9424;-64
2021/12/15 05:28:35;;;;;;;;;27.60;25.60;;;;;;;;5207458;28;8806;-64
2021/12/15 05:31:06;;;;;;;;;33.25;27.75;;;;;;;;5207383;28;8786;-64
2021/12/15 05:33:38;;;;;;;;;15.20;12.20;;;;;;;;5173476;28;11514;-64
2021/12/15 05:36:09;;;;;;;;;28.20;28.20;;;;;;;;5185553;28;8827;-64
2021/12/15 05:38:40;;;;;;;;;29.50;29.00;;;;;;;;5186406;28;8798;-64
2021/12/15 05:41:11;;;;;;;;;37.80;34.40;;;;;;;;5186125;28;11541;-64
2021/12/15 05:43:42;;;;;;;;;40.25;35.75;;;;;;;;5186578;28;8815;-64
2021/12/15 05:46:14;;;;;;;;;22.40;21.00;;;;;;;;5169254;28;8779;-64
2021/12/15 05:48:45;;;;;;;;;27.00;22.75;;;;;;;;5187280;28;8775;-64
2021/12/15 05:51:15;;;;;;;;;24.00;23.00;;;;;;;;5187121;28;11919;-64
2021/12/15 05:53:46;;;;;;;;;35.00;30.00;;;;;;;;5186837;28;8810;-64
2021/12/15 05:56:18;;;;;;;;;20.75;20.75;;;;;;;;5186606;28;11473;-63
2021/12/15 05:58:49;;;;;;;;;23.60;23.40;;;;;;;;5168989;28;8809;-65
2021/12/15 06:01:19;;;;;;;;;22.75;22.50;;;;;;;;5187051;28;8763;-65
2021/12/15 06:03:51;;;;;;;;;25.40;24.80;;;;;;;;5168880;28;8801;-64
2021/12/15 06:06:40;;;;;;;;;17.20;17.20;;;;;;;;5186540;28;9447;-64
2021/12/15 06:09:12;;;;;;;;;23.00;23.00;;;;;;;;5186706;28;8791;-64
2021/12/15 06:11:48;;;;;;;;;18.80;18.80;;;;;;;;5185663;28;11602;-64
2021/12/15 06:14:23;;;;;;;;;11.40;11.40;;;;;;;;5168855;28;8813;-64
2021/12/15 06:16:57;;;;;;;;;26.20;24.40;;;;;;;;5185377;28;8783;-64
2021/12/15 06:19:28;;;;;;;;;21.00;21.00;;;;;;;;5168622;28;8902;-65
2021/12/15 06:22:23;;;;;;;;;28.00;22.20;;;;;;;;5186721;28;8879;-64
2021/12/15 06:24:55;;;;;;;;;23.20;22.80;;;;;;;;5169334;28;8802;-64
2021/12/15 06:27:29;;;;;;;;;23.20;22.80;;;;;;;;5186148;28;8884;-65
2021/12/15 06:30:00;;;;;;;;;25.60;25.60;;;;;;;;5185512;28;8803;-65
2021/12/15 06:32:30;;;;;;;;;33.25;32.25;;;;;;;;5186460;28;8787;-65
2021/12/15 06:35:02;;;;;;;;;35.75;32.25;;;;;;;;5184258;28;8839;-65
2021/12/15 06:37:34;;;;;;;;;38.40;35.00;;;;;;;;5185859;28;8783;-64
2021/12/15 06:40:08;;;;;;;;;16.00;15.80;;;;;;;;5184687;28;8803;-64
2021/12/15 06:42:41;;;;;;;;;21.80;21.80;;;;;;;;5184220;28;8803;-63
2021/12/15 06:45:16;;;;;;;;;18.20;18.20;;;;;;;;5185113;28;8903;-63
2021/12/15 06:59:24;;;;;;;;;8.00;8.00;;;;;;;;5185626;28;9541;-65
2021/12/15 07:01:55;;;;;;;;;7.00;7.00;;;;;;;;5184932;28;8780;-65
2021/12/15 07:04:26;;;;;;;;;10.40;10.40;;;;;;;;5184269;28;8921;-65
2021/12/15 07:06:57;;;;;;;;;12.50;11.75;;;;;;;;5185878;28;8787;-66
2021/12/15 07:09:28;;;;;;;;;5.00;5.00;;;;;;;;5185638;28;8802;-64
2021/12/15 07:12:00;;;;;;;;;15.00;15.00;;;;;;;;5185274;28;8898;-64
2021/12/15 07:14:32;;;;;;;;;15.60;15.20;;;;;;;;5183729;28;8830;-64
2021/12/15 07:17:09;;;;;;;;;18.20;18.00;;;;;;;;5184268;28;8803;-64
2021/12/15 07:22:43;;;;;;;;;71.20;58.40;;;;;;;;5157407;28;8807;-64
2021/12/15 07:25:33;;;;;;;;;26.60;25.60;;;;;;;;5184008;28;8791;-64
2021/12/15 07:28:24;;;;;;;;;21.40;21.00;;;;;;;;5185441;28;8945;-64
2021/12/15 07:30:56;;;;;;;;;17.60;17.60;;;;;;;;5183660;28;8799;-64
2021/12/15 07:33:27;;;;;;;;;24.40;24.40;;;;;;;;5184612;28;8818;-64
2021/12/15 07:35:58;;;;;;;;;18.20;17.60;;;;;;;;5199600;28;9519;-64
2021/12/15 07:38:29;;;;;;;;;16.80;16.20;;;;;;;;5187322;28;8820;-65
2021/12/15 07:41:00;;;;;;;;;15.20;15.20;;;;;;;;5172416;28;8789;-64
2021/12/15 07:43:31;;;;;;;;;18.80;18.80;;;;;;;;5187321;28;8813;-64
2021/12/15 07:46:06;;;;;;;;;19.50;19.50;;;;;;;;5187746;28;8811;-64
2021/12/15 07:48:55;;;;;;;;;15.20;15.20;;;;;;;;5190284;28;8777;-64
2021/12/15 07:51:27;;;;;;;;;22.00;21.00;;;;;;;;5205071;28;8808;-64
2021/12/15 07:53:58;;;;;;;;;67.20;56.00;;;;;;;;5186949;28;8849;-64
2021/12/15 07:56:30;;;;;;;;;25.40;19.60;;;;;;;;5187917;28;8904;-64
2021/12/15 07:59:02;;;;;;;;;19.00;16.40;;;;;;;;5187319;28;8808;-64
2021/12/15 08:01:32;;;;;;;;;21.40;20.60;;;;;;;;5204813;28;8817;-64
2021/12/15 08:04:03;;;;;;;;;19.25;19.25;;;;;;;;5208491;28;8875;-64
2021/12/15 08:06:34;;;;;;;;;28.80;28.00;;;;;;;;5191529;28;11526;-65
2021/12/15 08:09:05;;;;;;;;;22.75;22.00;;;;;;;;5209474;28;8809;-64
2021/12/15 08:11:37;;;;;;;;;26.20;26.20;;;;;;;;5175289;28;8794;-64
2021/12/15 08:14:08;;;;;;;;;24.40;24.40;;;;;;;;5191655;28;9453;-66
2021/12/15 08:16:39;;;;;;;;;16.20;16.20;;;;;;;;5191206;28;9492;-64
2021/12/15 08:19:14;;;;;;;;;23.00;23.00;;;;;;;;5209035;28;8781;-64
2021/12/15 08:21:45;;;;;;;;;21.40;20.80;;;;;;;;5191639;28;9500;-64
2021/12/15 08:24:16;;;;;;;;;24.00;22.00;;;;;;;;5191014;28;8813;-65
2021/12/15 08:26:47;;;;;;;;;25.00;25.00;;;;;;;;5209875;28;10902;-64
2021/12/15 08:29:20;;;;;;;;;28.40;28.20;;;;;;;;5209003;28;12198;-64
2021/12/15 08:31:51;;;;;;;;;50.60;43.80;;;;;;;;5208395;28;8798;-64
2021/12/15 08:34:22;;;;;;;;;33.80;32.00;;;;;;;;5174613;28;8836;-64
2021/12/15 08:36:54;;;;;;;;;24.40;20.80;;;;;;;;5175375;28;8809;-64
2021/12/15 08:39:45;;;;;;;;;24.00;24.00;;;;;;;;5193941;28;8766;-64
2021/12/15 08:42:16;;;;;;;;;21.20;20.20;;;;;;;;5174855;28;9071;-64
2021/12/15 08:44:47;;;;;;;;;21.50;21.50;;;;;;;;5191336;28;8967;-64
2021/12/15 08:47:18;;;;;;;;;21.75;21.75;;;;;;;;5208252;28;8822;-64
2021/12/15 08:49:48;;;;;;;;;28.25;28.25;;;;;;;;5208167;28;8801;-64
2021/12/15 08:52:20;;;;;;;;;31.50;31.50;;;;;;;;5208351;28;8805;-64
2021/12/15 08:54:50;;;;;;;;;38.20;35.60;;;;;;;;5173879;28;11584;-64
2021/12/15 08:57:21;;;;;;;;;24.25;24.25;;;;;;;;5190506;28;8860;-64
2021/12/15 08:59:52;;;;;;;;;37.50;35.75;;;;;;;;5191089;28;8955;-64
2021/12/15 09:02:41;;;;;;;;;26.80;26.60;;;;;;;;5208162;28;8828;-64
2021/12/15 09:05:13;;;;;;;;;28.00;27.80;;;;;;;;5174321;28;8793;-64
2021/12/15 09:07:44;;;;;;;;;32.00;30.60;;;;;;;;5173664;28;8797;-64
2021/12/15 09:10:15;;;;;;;;;32.25;30.00;;;;;;;;5190178;28;8774;-64
2021/12/15 09:12:46;;;;;;;;;21.25;19.25;;;;;;;;5208137;28;9137;-64
2021/12/15 09:15:17;;;;;;;;;30.80;28.40;;;;;;;;5208342;28;8889;-64
2021/12/15 09:17:48;;;;;;;;;20.80;20.80;;;;;;;;5190461;28;8785;-64
2021/12/15 09:20:21;;;;;;;;;34.80;33.60;;;;;;;;5190569;28;9562;-64
2021/12/15 09:22:52;;;;;;;;;22.60;22.60;;;;;;;;5173633;28;8789;-64
2021/12/15 09:25:44;;;;;;;;;23.20;22.60;;;;;;;;5190416;28;8884;-64
2021/12/15 09:28:15;;;;;;;;;26.40;26.40;;;;;;;;5174328;28;8785;-64
2021/12/15 09:30:48;;;;;;;;;25.40;23.80;;;;;;;;5174030;28;8782;-64
2021/12/15 09:33:41;;;;;;;;;25.60;25.20;;;;;;;;5192668;28;8817;-63
2021/12/15 09:36:13;;;;;;;;;33.20;32.00;;;;;;;;5169790;28;9498;-65
2021/12/15 09:38:46;;;;;;;;;31.20;29.20;;;;;;;;5187080;28;8783;-65
2021/12/15 09:41:18;;;;;;;;;31.20;30.40;;;;;;;;5169301;28;8928;-65
2021/12/15 09:43:51;;;;;;;;;24.40;23.40;;;;;;;;5169344;28;8844;-64
2021/12/15 09:46:37;;;;;;;;;18.40;16.40;;;;;;;;5169610;28;8787;-64
2021/12/15 10:03:55;;;;;;;;;14.40;13.00;;;;;;;;5186613;28;8783;-64
2021/12/15 10:06:34;;;;;;;;;19.00;19.00;;;;;;;;5169118;28;8796;-65
2021/12/15 10:17:49;;;;;;;;;15.00;15.00;;;;;;;;5187263;28;8810;-64
2021/12/15 10:20:22;;;;;;;;;17.60;17.60;;;;;;;;5185586;28;8807;-64
2021/12/15 10:22:58;;;;;;;;;15.80;15.80;;;;;;;;5169228;28;8795;-64
2021/12/15 10:25:32;;;;;;;;;21.00;19.80;;;;;;;;5185918;28;9447;-64
2021/12/15 10:28:23;;;;;;;;;19.00;19.00;;;;;;;;5185166;28;8767;-64
2021/12/15 10:30:56;;;;;;;;;25.00;20.40;;;;;;;;5168732;28;8791;-64
2021/12/15 10:33:48;;;;;;;;;21.20;21.20;;;;;;;;5185115;28;8819;-64
2021/12/15 10:36:24;;;;;;;;;18.40;18.40;;;;;;;;5168380;28;8839;-65
2021/12/15 10:38:57;;;;;;;;;26.20;20.20;;;;;;;;5184510;28;8803;-64
2021/12/15 10:41:33;;;;;;;;;23.40;22.20;;;;;;;;5167919;28;8810;-64
2021/12/15 10:44:04;;;;;;;;;13.80;12.40;;;;;;;;5185393;28;8791;-64
2021/12/15 10:46:37;;;;;;;;;18.00;18.00;;;;;;;;5169153;28;9564;-64
2021/12/15 10:49:07;;;;;;;;;20.60;20.20;;;;;;;;5168279;28;8794;-64
2021/12/15 10:51:57;;;;;;;;;30.80;30.80;;;;;;;;5184881;28;8779;-64
2021/12/15 10:54:46;;;;;;;;;27.40;26.00;;;;;;;;5168180;28;8869;-64
2021/12/15 10:57:27;;;;;;;;;26.20;25.00;;;;;;;;5184631;28;8791;-64
2021/12/15 11:00:00;;;;;;;;;25.80;17.60;;;;;;;;5168476;28;8831;-64
2021/12/15 11:02:32;;;;;;;;;21.60;19.60;;;;;;;;5168489;28;8964;-65
2021/12/15 11:05:06;;;;;;;;;26.80;26.80;;;;;;;;5185091;28;8825;-65
2021/12/15 11:07:58;;;;;;;;;18.40;18.40;;;;;;;;5171145;28;8803;-63
2021/12/15 11:10:33;;;;;;;;;23.40;21.40;;;;;;;;5167924;28;8929;-64
2021/12/15 11:13:05;;;;;;;;;30.40;29.60;;;;;;;;5167976;28;8843;-64
2021/12/15 11:15:55;;;;;;;;;25.20;24.40;;;;;;;;5185521;28;8825;-64
2021/12/15 11:18:44;;;;;;;;;27.60;26.80;;;;;;;;5186055;28;8787;-64
2021/12/15 11:21:15;;;;;;;;;24.25;23.75;;;;;;;;5184569;28;8834;-65
2021/12/15 11:23:46;;;;;;;;;32.75;32.75;;;;;;;;5184996;28;8809;-65
2021/12/15 11:26:18;;;;;;;;;18.25;18.25;;;;;;;;5184267;28;8802;-64
2021/12/15 11:28:50;;;;;;;;;18.20;18.20;;;;;;;;5167455;28;8811;-63
2021/12/15 11:31:23;;;;;;;;;25.40;25.40;;;;;;;;5167795;28;8790;-64
2021/12/15 11:33:56;;;;;;;;;24.60;24.60;;;;;;;;5167125;28;8822;-65
2021/12/15 11:36:46;;;;;;;;;23.00;23.00;;;;;;;;5203893;28;8828;-65
2021/12/15 11:39:19;;;;;;;;;22.40;21.00;;;;;;;;5171123;28;8800;-65
2021/12/15 11:41:52;;;;;;;;;16.00;16.00;;;;;;;;5205168;28;8782;-65
2021/12/15 11:44:42;;;;;;;;;13.40;13.40;;;;;;;;5190440;28;8773;-65
2021/12/15 11:47:22;;;;;;;;;20.40;19.40;;;;;;;;5187583;28;9524;-64
2021/12/15 11:49:53;;;;;;;;;15.80;14.40;;;;;;;;5205179;28;8777;-64
2021/12/15 11:52:23;;;;;;;;;17.75;17.75;;;;;;;;5204631;28;8797;-63
2021/12/15 11:54:54;;;;;;;;;18.50;18.25;;;;;;;;5205313;28;8809;-64
2021/12/15 11:57:27;;;;;;;;;31.00;29.25;;;;;;;;5187566;28;8810;-64
2021/12/15 12:00:04;;;;;;;;;26.40;25.80;;;;;;;;5188011;28;8813;-64
2021/12/15 12:02:43;;;;;;;;;17.80;17.80;;;;;;;;5188441;28;8782;-63
2021/12/15 12:05:17;;;;;;;;;29.00;28.60;;;;;;;;5187664;28;8801;-64
2021/12/15 12:07:48;;;;;;;;;28.00;25.80;;;;;;;;5187267;28;8813;-64
2021/12/15 12:10:22;;;;;;;;;19.60;19.00;;;;;;;;5170759;28;8801;-64
2021/12/15 12:13:21;;;;;;;;;17.40;16.00;;;;;;;;5190667;28;8931;-63
2021/12/15 12:15:54;;;;;;;;;20.40;19.60;;;;;;;;5171594;28;8793;-64
2021/12/15 12:18:44;;;;;;;;;26.60;25.40;;;;;;;;5191056;28;8807;-64
2021/12/15 12:21:33;;;;;;;;;33.80;32.00;;;;;;;;5205507;28;8825;-64
2021/12/15 12:24:04;;;;;;;;;28.25;26.75;;;;;;;;5204778;28;8924;-64
2021/12/15 12:26:35;;;;;;;;;26.80;26.00;;;;;;;;5170869;28;8828;-64
2021/12/15 12:29:06;;;;;;;;;22.25;21.00;;;;;;;;5204770;28;8805;-64
2021/12/15 12:31:37;;;;;;;;;21.75;21.75;;;;;;;;5187410;28;8774;-65
2021/12/15 12:34:10;;;;;;;;;26.00;26.00;;;;;;;;5204500;28;11265;-66
2021/12/15 12:36:43;;;;;;;;;30.80;29.60;;;;;;;;5170383;28;8902;-64
2021/12/15 12:39:14;;;;;;;;;21.00;19.80;;;;;;;;5170760;28;8798;-64
2021/12/15 12:41:48;;;;;;;;;20.60;18.80;;;;;;;;5170419;28;8802;-64
2021/12/15 12:44:21;;;;;;;;;26.60;20.60;;;;;;;;5205092;28;8817;-64
2021/12/15 12:47:02;;;;;;;;;31.60;30.20;;;;;;;;5204275;28;8792;-64
2021/12/15 13:01:14;;;;;;;;;37.20;36.80;;;;;;;;5191033;28;8801;-64
2021/12/15 13:03:50;;;;;;;;;37.60;36.20;;;;;;;;5190837;28;8820;-63
2021/12/15 13:06:26;;;;;;;;;22.40;22.40;;;;;;;;5208347;28;8774;-64
2021/12/15 13:09:17;;;;;;;;;17.20;17.20;;;;;;;;5193255;28;9441;-65
2021/12/15 13:11:50;;;;;;;;;18.60;18.60;;;;;;;;5208542;28;8777;-63
2021/12/15 13:14:38;;;;;;;;;12.00;9.00;;;;;;;;5174007;28;8943;-64
2021/12/15 13:17:34;;;;;;;;;34.00;31.60;;;;;;;;5207908;28;9492;-64
2021/12/15 13:20:21;;;;;;;;;23.40;20.80;;;;;;;;5174639;28;8944;-64
2021/12/15 13:28:51;;;;;;;;;20.20;19.20;;;;;;;;5148968;28;8909;-64
2021/12/15 13:31:27;;;;;;;;;25.00;24.00;;;;;;;;5160163;28;8806;-65
2021/12/15 13:34:01;;;;;;;;;28.80;27.40;;;;;;;;5208093;28;8859;-64
2021/12/15 13:36:42;;;;;;;;;27.40;25.40;;;;;;;;5173549;28;8837;-63
2021/12/15 13:39:15;;;;;;;;;24.40;24.40;;;;;;;;5174045;28;8777;-67
2021/12/15 13:44:35;;;;;;;;;30.40;29.00;;;;;;;;5190181;28;9547;-64
2021/12/15 13:47:07;;;;;;;;;32.60;32.00;;;;;;;;5184533;28;8805;-65
2021/12/15 13:49:40;;;;;;;;;12.60;12.60;;;;;;;;5205747;28;8844;-65
2021/12/15 13:52:17;;;;;;;;;24.60;24.00;;;;;;;;5155018;28;8804;-67
2021/12/15 13:54:50;;;;;;;;;24.40;22.80;;;;;;;;5189808;28;9552;-64
2021/12/15 13:57:24;;;;;;;;;28.80;26.80;;;;;;;;5172916;28;8781;-64
2021/12/15 14:04:38;;;;;;;;;25.00;25.00;;;;;;;;5226365;28;8731;-65
2021/12/15 14:07:28;;;;;;;;;23.20;22.80;;;;;;;;5188664;28;8809;-65
2021/12/15 14:14:24;;;;;;;;;38.00;35.80;;;;;;;;5207209;28;8818;-63
2021/12/15 14:16:56;;;;;;;;;27.40;27.40;;;;;;;;5157377;28;8786;-65
2021/12/15 14:19:33;;;;;;;;;29.40;29.40;;;;;;;;5157344;28;8789;-65
2021/12/15 14:22:06;;;;;;;;;41.80;40.00;;;;;;;;5208274;28;8774;-64
2021/12/15 14:24:38;;;;;;;;;50.40;47.60;;;;;;;;5207274;28;9477;-63
2021/12/15 14:27:09;;;;;;;;;45.80;43.80;;;;;;;;5156865;28;8774;-64
2021/12/15 14:29:40;;;;;;;;;43.50;41.75;;;;;;;;5189472;28;8809;-63
2021/12/15 14:32:10;;;;;;;;;35.00;34.00;;;;;;;;5206591;28;11564;-63
2021/12/15 14:34:59;;;;;;;;;40.00;38.40;;;;;;;;5206795;28;8829;-64
2021/12/15 14:37:30;;;;;;;;;41.20;39.80;;;;;;;;5173136;28;8800;-63
2021/12/15 14:40:01;;;;;;;;;50.00;47.50;;;;;;;;5206586;28;8781;-62
2021/12/15 14:42:34;;;;;;;;;38.60;38.60;;;;;;;;5206062;28;8781;-65
2021/12/15 14:45:05;;;;;;;;;48.20;44.80;;;;;;;;5206107;28;8785;-64
2021/12/15 14:47:38;;;;;;;;;31.60;30.60;;;;;;;;5172598;28;9508;-64
2021/12/15 14:50:17;;;;;;;;;24.80;19.80;;;;;;;;5172317;28;8805;-64
2021/12/15 14:52:53;;;;;;;;;30.40;27.60;;;;;;;;5172118;28;8880;-64
2021/12/15 14:55:26;;;;;;;;;41.20;40.20;;;;;;;;5206310;28;9472;-64
2021/12/15 14:57:58;;;;;;;;;58.00;48.00;;;;;;;;5171500;28;8839;-64
2021/12/15 15:00:32;;;;;;;;;90.00;70.75;;;;;;;;5187978;28;8816;-64
2021/12/15 15:03:05;;;;;;;;;53.00;47.80;;;;;;;;5171536;28;8932;-65
2021/12/15 15:05:38;;;;;;;;;54.00;45.00;;;;;;;;5156004;28;8924;-64
2021/12/15 15:08:15;;;;;;;;;54.40;48.00;;;;;;;;5206096;28;8805;-65
2021/12/15 15:10:47;;;;;;;;;46.80;45.20;;;;;;;;5188503;28;8798;-68
2021/12/15 15:13:22;;;;;;;;;53.80;45.60;;;;;;;;5155132;28;8837;-64
2021/12/15 15:15:57;;;;;;;;;41.20;38.80;;;;;;;;5155494;28;9523;-64
2021/12/15 15:18:31;;;;;;;;;46.20;44.60;;;;;;;;5187925;28;8802;-63
2021/12/15 15:21:02;;;;;;;;;41.20;40.60;;;;;;;;5155356;28;8809;-64
2021/12/15 15:23:36;;;;;;;;;45.00;44.40;;;;;;;;5170931;28;8802;-65
2021/12/15 15:26:10;;;;;;;;;56.20;50.60;;;;;;;;5187810;28;9572;-65
2021/12/15 15:28:44;;;;;;;;;48.20;44.60;;;;;;;;5155098;28;8801;-65
2021/12/15 15:31:16;;;;;;;;;44.40;38.20;;;;;;;;5154846;28;8951;-65
2021/12/15 15:34:06;;;;;;;;;30.40;30.40;;;;;;;;5190323;28;8801;-63
2021/12/15 15:36:37;;;;;;;;;39.50;37.00;;;;;;;;5205738;28;8843;-64
2021/12/15 15:39:09;;;;;;;;;45.00;38.60;;;;;;;;5205389;28;8794;-62
2021/12/15 15:41:40;;;;;;;;;18.40;18.20;;;;;;;;5154829;28;8868;-65
2021/12/15 15:44:11;;;;;;;;;38.25;36.00;;;;;;;;5205161;28;8794;-64
2021/12/15 15:46:43;;;;;;;;;35.00;29.00;;;;;;;;5205169;28;8786;-64
2021/12/15 15:49:18;;;;;;;;;29.20;28.80;;;;;;;;5155051;28;11587;-64
2021/12/15 15:51:51;;;;;;;;;53.40;46.40;;;;;;;;5154706;28;8844;-64
2021/12/15 15:54:28;;;;;;;;;46.40;45.00;;;;;;;;5171037;28;8914;-64
2021/12/15 15:57:00;;;;;;;;;47.60;42.60;;;;;;;;5154839;28;8809;-64
2021/12/15 15:59:31;;;;;;;;;36.20;35.20;;;;;;;;5170849;28;8778;-64
2021/12/15 16:02:05;;;;;;;;;42.80;41.60;;;;;;;;5204881;28;8804;-63
2021/12/15 16:04:39;;;;;;;;;42.20;40.20;;;;;;;;5204963;28;8912;-64
2021/12/15 16:07:14;;;;;;;;;42.20;39.20;;;;;;;;5187054;28;8841;-64
2021/12/15 16:09:48;;;;;;;;;38.20;36.60;;;;;;;;5204567;28;9484;-64
2021/12/15 16:12:21;;;;;;;;;44.40;41.60;;;;;;;;5154809;28;8785;-63
2021/12/15 16:14:52;;;;;;;;;54.00;48.40;;;;;;;;5154445;28;8833;-64
2021/12/15 16:17:37;;;;;;;;;72.20;57.60;;;;;;;;5154714;28;8804;-64
2021/12/15 16:20:15;;;;;;;;;64.80;54.40;;;;;;;;5170613;28;8936;-64
2021/12/15 16:23:00;;;;;;;;;63.60;52.00;;;;;;;;5204958;28;8832;-64
2021/12/15 16:25:37;;;;;;;;;39.60;39.60;;;;;;;;5191633;28;8798;-64
2021/12/15 16:28:11;;;;;;;;;35.60;33.60;;;;;;;;5175008;28;8793;-63
2021/12/15 16:30:46;;;;;;;;;34.40;34.40;;;;;;;;5175189;28;8785;-64
2021/12/15 16:33:19;;;;;;;;;45.00;41.60;;;;;;;;5175418;28;8843;-63
2021/12/15 16:35:50;;;;;;;;;41.80;38.20;;;;;;;;5174297;28;8971;-62
2021/12/15 16:38:27;;;;;;;;;33.40;31.80;;;;;;;;5174449;28;9499;-64
2021/12/15 16:40:59;;;;;;;;;36.40;36.00;;;;;;;;5174741;28;9646;-63
2021/12/15 16:43:48;;;;;;;;;54.20;46.60;;;;;;;;5193602;28;8790;-64
2021/12/15 16:46:40;;;;;;;;;74.60;58.00;;;;;;;;5209269;28;9433;-64
2021/12/15 16:49:15;;;;;;;;;67.00;56.20;;;;;;;;5175293;28;8800;-62
2021/12/15 16:56:27;;;;;;;;;40.80;40.20;;;;;;;;5208204;28;8777;-63
2021/12/15 16:59:06;;;;;;;;;42.00;42.00;;;;;;;;5190645;28;8809;-64
2021/12/15 17:01:38;;;;;;;;;44.80;39.40;;;;;;;;5174378;28;8816;-63
2021/12/15 17:04:10;;;;;;;;;34.60;28.80;;;;;;;;5174028;28;8778;-64
2021/12/15 17:06:41;;;;;;;;;36.00;36.00;;;;;;;;5158052;28;8920;-64
2021/12/15 17:09:23;;;;;;;;;70.60;57.20;;;;;;;;5158015;28;8797;-64
2021/12/15 17:12:23;;;;;;;;;47.60;44.00;;;;;;;;5157470;28;8778;-63
2021/12/15 17:15:08;;;;;;;;;43.00;41.60;;;;;;;;5156132;28;8821;-64